Time;durP1;ratioP1;P1;durP2;ratioP2;P2;SDS_P1;SDS_P2;PMS_P1;PMS_P2;Temp;Humidity;BMP_temperature;BMP_pressure;BME280_temperature;BME280_humidity;BME280_pressure;Samples;Min_cycle;Max_cycle;Signal;HPM_P1;HPM_P2
2022/02/17 00:00:21;;;;;;;;;;;;;;;8.59;100.00;94628.03;1035147;28;20000;-75
2022/02/17 00:00:51;;;;;;;;;;;;;;;8.51;100.00;94634.63;1031162;28;19917;-74
2022/02/17 00:01:22;;;;;;;;;;;;;;;8.50;100.00;94625.25;1035097;28;19910;-75
2022/02/17 00:01:52;;;;;;;;;;;;;;;8.52;100.00;94617.91;1035343;28;19909;-75
2022/02/17 00:02:22;;;;;;;;;;;;;;;8.52;100.00;94638.84;1039223;28;19920;-75
2022/02/17 00:02:53;;;;;;;;;;;;;;;8.54;100.00;94652.38;1039260;28;19909;-75
2022/02/17 00:03:24;;;;;;;;;;;;;;;8.57;100.00;94630.91;1033757;28;20467;-75
2022/02/17 00:03:54;;;;;;;;;;;;;;;8.70;100.00;94656.41;1027042;28;20220;-75
2022/02/17 00:04:25;;;;;;;;;;;;;;;8.69;100.00;94643.63;1027152;28;19926;-75
2022/02/17 00:05:00;;;;;;;;;;;;;;;8.73;100.00;94640.19;1029702;28;19914;-74
2022/02/17 00:05:30;;;;;;;;;;;;;;;8.71;100.00;94651.97;1039301;28;20289;-75
2022/02/17 00:06:01;;;;;;;;;;;;;;;8.68;100.00;94642.81;1035137;28;20024;-75
2022/02/17 00:06:31;;;;;;;;;;;;;;;8.70;100.00;94634.72;1030812;28;20371;-74
2022/02/17 00:07:02;;;;;;;;;;;;;;;8.71;100.00;94642.28;1031321;28;19910;-75
2022/02/17 00:07:32;;;;;;;;;;;;;;;8.70;100.00;94629.50;1031158;28;19906;-75
2022/02/17 00:08:03;;;;;;;;;;;;;;;8.72;100.00;94622.94;1039511;28;19920;-75
2022/02/17 00:08:34;;;;;;;;;;;;;;;8.74;100.00;94669.72;1038793;28;19909;-75
2022/02/17 00:09:04;;;;;;;;;;;;;;;8.83;100.00;94639.28;1035233;28;20388;-75
2022/02/17 00:09:35;;;;;;;;;;;;;;;8.85;100.00;94634.56;1039219;28;20196;-75
2022/02/17 00:10:05;;;;;;;;;;;;;;;8.82;100.00;94634.31;1037233;28;19987;-75
2022/02/17 00:10:36;;;;;;;;;;;;;;;8.82;100.00;94618.63;1022899;29;19964;-75
2022/02/17 00:11:06;;;;;;;;;;;;;;;8.86;100.00;94633.50;1026967;28;19938;-74
2022/02/17 00:11:41;;;;;;;;;;;;;;;8.90;100.00;94628.50;1027515;28;19914;-74
2022/02/17 00:12:11;;;;;;;;;;;;;;;8.94;100.00;94634.72;1028129;28;19914;-75
2022/02/17 00:12:42;;;;;;;;;;;;;;;8.96;100.00;94620.31;1034215;28;19913;-75
2022/02/17 00:13:12;;;;;;;;;;;;;;;8.96;100.00;94622.94;1027831;28;19946;-75
2022/02/17 00:13:43;;;;;;;;;;;;;;;8.94;100.00;94630.25;1026887;28;20085;-75
2022/02/17 00:14:13;;;;;;;;;;;;;;;8.89;100.00;94619.88;1027176;28;19946;-75
2022/02/17 00:14:44;;;;;;;;;;;;;;;8.89;100.00;94611.25;1026958;28;19961;-74
2022/02/17 00:15:14;;;;;;;;;;;;;;;8.87;100.00;94598.44;1035190;28;19914;-75
2022/02/17 00:15:44;;;;;;;;;;;;;;;8.89;100.00;94616.47;1039314;28;19920;-75
2022/02/17 00:16:16;;;;;;;;;;;;;;;8.89;100.00;94606.03;1039464;28;20399;-75
2022/02/17 00:16:48;;;;;;;;;;;;;;;8.88;100.00;94599.97;1029900;28;19993;-75
2022/02/17 00:17:18;;;;;;;;;;;;;;;8.87;100.00;94624.59;1027741;28;20284;-74
2022/02/17 00:17:49;;;;;;;;;;;;;;;8.84;100.00;94619.91;1031691;28;20021;-74
2022/02/17 00:18:22;;;;;;;;;;;;;;;8.89;100.00;94616.47;1027715;28;20038;-75
2022/02/17 00:18:53;;;;;;;;;;;;;;;8.90;100.00;94612.81;1031237;28;19936;-75
2022/02/17 00:19:23;;;;;;;;;;;;;;;8.84;100.00;94601.59;1027560;28;19939;-75
2022/02/17 00:19:53;;;;;;;;;;;;;;;8.83;100.00;94602.69;1035548;28;19914;-75
2022/02/17 00:20:24;;;;;;;;;;;;;;;8.81;100.00;94609.22;1026950;28;20408;-74
2022/02/17 00:20:57;;;;;;;;;;;;;;;8.80;100.00;94607.69;1027306;28;19914;-75
2022/02/17 00:21:28;;;;;;;;;;;;;;;8.79;100.00;94606.13;1031024;28;19910;-74
2022/02/17 00:21:58;;;;;;;;;;;;;;;8.87;100.00;94608.13;1028008;28;19907;-75
2022/02/17 00:22:29;;;;;;;;;;;;;;;8.88;100.00;94620.13;1035665;28;19909;-75
2022/02/17 00:22:59;;;;;;;;;;;;;;;8.92;100.00;94623.75;1035035;28;20121;-74
2022/02/17 00:23:30;;;;;;;;;;;;;;;8.96;100.00;94609.84;1034895;28;20166;-75
2022/02/17 00:24:00;;;;;;;;;;;;;;;8.99;100.00;94621.59;1039056;28;20369;-74
2022/02/17 00:24:30;;;;;;;;;;;;;;;8.97;100.00;94623.69;1039202;28;19932;-74
2022/02/17 00:25:01;;;;;;;;;;;;;;;8.97;100.00;94624.47;1034962;28;19945;-75
2022/02/17 00:25:31;;;;;;;;;;;;;;;9.00;100.00;94641.47;1033786;28;20513;-75
2022/02/17 00:26:02;;;;;;;;;;;;;;;9.04;100.00;94650.31;1026852;28;19926;-75
2022/02/17 00:26:32;;;;;;;;;;;;;;;9.09;100.00;94605.78;1026987;28;19906;-75
2022/02/17 00:27:03;;;;;;;;;;;;;;;9.16;100.00;94606.22;1032477;28;19914;-74
2022/02/17 00:27:34;;;;;;;;;;;;;;;9.17;100.00;94614.84;1034762;28;19913;-75
2022/02/17 00:28:04;;;;;;;;;;;;;;;9.17;100.00;94612.22;1031087;28;19906;-74
2022/02/17 00:28:37;;;;;;;;;;;;;;;9.21;100.00;94595.66;1031049;28;20157;-74
2022/02/17 00:29:08;;;;;;;;;;;;;;;9.17;100.00;94599.91;1039087;28;20398;-75
2022/02/17 00:29:38;;;;;;;;;;;;;;;9.25;100.00;94592.47;1030631;28;20021;-74
2022/02/17 00:30:09;;;;;;;;;;;;;;;9.21;100.00;94595.66;1031454;28;19918;-75
2022/02/17 00:30:40;;;;;;;;;;;;;;;9.20;100.00;94606.41;1026815;28;20388;-75
2022/02/17 00:31:10;;;;;;;;;;;;;;;9.27;100.00;94588.53;1027447;28;20009;-74
2022/02/17 00:31:40;;;;;;;;;;;;;;;9.21;100.00;94587.81;1030783;28;20462;-75
2022/02/17 00:32:11;;;;;;;;;;;;;;;9.18;100.00;94583.13;1021209;28;19918;-75
2022/02/17 00:32:41;;;;;;;;;;;;;;;9.21;100.00;94593.03;1022720;29;20446;-75
2022/02/17 00:33:12;;;;;;;;;;;;;;;9.20;100.00;94604.56;1027079;28;20316;-74
2022/02/17 00:33:43;;;;;;;;;;;;;;;9.23;100.00;94594.63;1019096;29;20284;-75
2022/02/17 00:34:13;;;;;;;;;;;;;;;9.18;100.00;94600.69;1022915;29;19910;-75
2022/02/17 00:34:44;;;;;;;;;;;;;;;9.23;100.00;94584.16;1030755;28;19920;-75
2022/02/17 00:35:14;;;;;;;;;;;;;;;9.28;100.00;94621.50;1031244;28;19913;-75
2022/02/17 00:35:45;;;;;;;;;;;;;;;9.33;100.00;94620.66;1035091;28;19914;-75
2022/02/17 00:36:15;;;;;;;;;;;;;;;9.32;100.00;94603.38;1039209;28;19921;-75
2022/02/17 00:36:46;;;;;;;;;;;;;;;9.34;100.00;94601.28;1039015;28;19920;-75
2022/02/17 00:37:19;;;;;;;;;;;;;;;9.32;100.00;94598.13;1035059;28;19909;-75
2022/02/17 00:37:49;;;;;;;;;;;;;;;9.33;100.00;94604.94;1035335;28;19905;-74
2022/02/17 00:38:20;;;;;;;;;;;;;;;9.33;100.00;94600.50;1031000;28;20189;-74
2022/02/17 00:38:50;;;;;;;;;;;;;;;9.30;100.00;94589.81;1031409;28;20341;-75
2022/02/17 00:39:21;;;;;;;;;;;;;;;9.31;100.00;94599.97;1035101;28;19913;-74
2022/02/17 00:39:51;;;;;;;;;;;;;;;9.28;100.00;94607.63;1034900;28;19968;-75
2022/02/17 00:40:21;;;;;;;;;;;;;;;9.29;100.00;94603.94;1038990;28;19913;-75
2022/02/17 00:40:52;;;;;;;;;;;;;;;9.34;100.00;94606.50;1035132;28;19909;-75
2022/02/17 00:41:23;;;;;;;;;;;;;;;9.33;100.00;94586.63;1035155;28;19917;-75
2022/02/17 00:41:54;;;;;;;;;;;;;;;9.36;100.00;94596.53;1043106;28;19919;-75
2022/02/17 00:42:24;;;;;;;;;;;;;;;9.45;100.00;94602.69;1039000;28;19959;-75
2022/02/17 00:42:55;;;;;;;;;;;;;;;9.41;100.00;94597.22;1027316;28;20505;-75
2022/02/17 00:43:25;;;;;;;;;;;;;;;9.49;100.00;94590.59;1035079;28;19984;-74
2022/02/17 00:43:56;;;;;;;;;;;;;;;9.43;100.00;94594.34;1034812;28;20079;-75
2022/02/17 00:44:26;;;;;;;;;;;;;;;9.42;100.00;94577.84;1027183;28;19915;-74
2022/02/17 00:44:57;;;;;;;;;;;;;;;9.40;100.00;94593.06;1027291;28;19914;-75
2022/02/17 00:45:27;;;;;;;;;;;;;;;9.39;100.00;94588.13;1031456;28;19906;-75
2022/02/17 00:45:58;;;;;;;;;;;;;;;9.36;100.00;94596.53;1031541;28;20153;-74
2022/02/17 00:46:32;;;;;;;;;;;;;;;9.35;100.00;94602.81;1043347;28;20375;-74
2022/02/17 00:47:06;;;;;;;;;;;;;;;9.45;100.00;94618.38;1039513;28;20417;-75
2022/02/17 00:47:39;;;;;;;;;;;;;;;9.42;100.00;94616.34;1040069;28;19925;-75
2022/02/17 00:48:12;;;;;;;;;;;;;;;9.40;100.00;94610.63;1046875;28;19908;-75
2022/02/17 00:48:43;;;;;;;;;;;;;;;9.41;100.00;94620.78;1047458;28;19942;-74
2022/02/17 00:49:13;;;;;;;;;;;;;;;9.53;100.00;94604.69;1043420;28;20007;-75
2022/02/17 00:49:46;;;;;;;;;;;;;;;9.54;100.00;94621.94;1043097;28;19964;-75
2022/02/17 00:50:17;;;;;;;;;;;;;;;9.61;100.00;94619.75;1043204;28;19916;-76
2022/02/17 00:50:48;;;;;;;;;;;;;;;9.54;100.00;94611.47;1039556;28;19937;-75
2022/02/17 00:51:18;;;;;;;;;;;;;;;9.49;100.00;94608.94;1043223;28;20413;-75
2022/02/17 00:51:48;;;;;;;;;;;;;;;9.49;100.00;94614.16;1035054;28;19913;-75
2022/02/17 00:52:19;;;;;;;;;;;;;;;9.53;100.00;94646.56;1030876;28;19916;-74
2022/02/17 00:52:49;;;;;;;;;;;;;;;9.64;100.00;94611.31;1035199;28;19970;-74
2022/02/17 00:53:20;;;;;;;;;;;;;;;9.61;100.00;94603.25;1030690;28;19906;-74
2022/02/17 00:53:50;;;;;;;;;;;;;;;9.58;100.00;94619.53;1035197;28;19906;-75
2022/02/17 00:54:20;;;;;;;;;;;;;;;9.56;100.00;94585.78;1035035;28;20348;-75
2022/02/17 00:54:51;;;;;;;;;;;;;;;9.56;100.00;94604.09;1034860;28;20362;-74
2022/02/17 00:55:21;;;;;;;;;;;;;;;9.60;100.00;94620.03;1031098;28;20402;-75
2022/02/17 00:55:51;;;;;;;;;;;;;;;9.55;100.00;94613.00;1034964;28;20004;-75
2022/02/17 00:56:22;;;;;;;;;;;;;;;9.57;100.00;94610.13;1034980;28;20000;-74
2022/02/17 00:56:52;;;;;;;;;;;;;;;9.56;100.00;94601.50;1035050;28;19944;-75
2022/02/17 00:57:25;;;;;;;;;;;;;;;9.55;100.00;94612.22;1038932;28;19921;-75
2022/02/17 00:57:55;;;;;;;;;;;;;;;9.51;100.00;94593.69;1039459;28;19915;-75
2022/02/17 00:58:25;;;;;;;;;;;;;;;9.54;100.00;94559.09;1042832;28;19983;-75
2022/02/17 00:58:56;;;;;;;;;;;;;;;9.58;100.00;94594.13;1039055;28;19967;-75
2022/02/17 00:59:28;;;;;;;;;;;;;;;9.63;100.00;94604.53;1030883;28;19974;-75
2022/02/17 00:59:58;;;;;;;;;;;;;;;9.60;100.00;94597.25;1032136;28;20421;-75
2022/02/17 01:00:29;;;;;;;;;;;;;;;9.58;100.00;94585.47;1035091;28;19906;-75
2022/02/17 01:00:59;;;;;;;;;;;;;;;9.57;100.00;94583.94;1034577;28;20351;-74
2022/02/17 01:01:29;;;;;;;;;;;;;;;9.60;100.00;94593.84;1033687;28;19916;-75
2022/02/17 01:02:00;;;;;;;;;;;;;;;9.58;100.00;94601.19;1030973;28;20388;-74
2022/02/17 01:02:30;;;;;;;;;;;;;;;9.58;100.00;94590.72;1026967;28;20118;-74
2022/02/17 01:03:00;;;;;;;;;;;;;;;9.53;100.00;94583.72;1026748;28;19997;-75
2022/02/17 01:03:31;;;;;;;;;;;;;;;9.21;100.00;94553.78;1030697;28;19949;-75
2022/02/17 01:04:01;;;;;;;;;;;;;;;9.49;100.00;94603.69;1026655;28;19982;-75
2022/02/17 01:04:32;;;;;;;;;;;;;;;9.58;100.00;94583.63;1027049;28;19911;-76
2022/02/17 01:05:02;;;;;;;;;;;;;;;9.53;100.00;94581.09;1037075;28;19914;-75
2022/02/17 01:05:33;;;;;;;;;;;;;;;9.59;100.00;94587.03;1031191;28;19957;-75
2022/02/17 01:06:03;;;;;;;;;;;;;;;9.54;100.00;94590.50;1038909;28;20068;-74
2022/02/17 01:06:38;;;;;;;;;;;;;;;9.56;100.00;94583.16;1038772;28;19905;-74
2022/02/17 01:07:08;;;;;;;;;;;;;;;9.53;100.00;94565.41;1038746;28;19917;-75
2022/02/17 01:07:39;;;;;;;;;;;;;;;9.52;100.00;94592.63;1034863;28;20361;-74
2022/02/17 01:08:09;;;;;;;;;;;;;;;9.54;100.00;94580.03;1038771;28;20399;-74
2022/02/17 01:08:39;;;;;;;;;;;;;;;9.56;100.00;94601.50;1034950;28;19906;-75
2022/02/17 01:09:10;;;;;;;;;;;;;;;9.57;100.00;94604.88;1030708;28;20013;-74
2022/02/17 01:09:40;;;;;;;;;;;;;;;9.60;100.00;94594.63;1038789;28;20338;-75
2022/02/17 01:10:11;;;;;;;;;;;;;;;9.56;100.00;94593.63;1042958;28;19917;-75
2022/02/17 01:10:41;;;;;;;;;;;;;;;9.54;100.00;94616.69;1039053;28;19913;-75
2022/02/17 01:11:12;;;;;;;;;;;;;;;9.55;100.00;94580.81;1030828;28;19921;-74
2022/02/17 01:11:42;;;;;;;;;;;;;;;9.55;100.00;94605.16;1030691;28;20391;-75
2022/02/17 01:12:13;;;;;;;;;;;;;;;9.54;100.00;94614.09;1031028;28;19944;-75
2022/02/17 01:12:43;;;;;;;;;;;;;;;9.57;100.00;94563.00;1026894;28;20005;-75
2022/02/17 01:13:13;;;;;;;;;;;;;;;9.65;100.00;94559.72;1030660;28;19925;-74
2022/02/17 01:13:44;;;;;;;;;;;;;;;9.70;100.00;94587.69;1030767;28;19914;-75
2022/02/17 01:14:14;;;;;;;;;;;;;;;9.63;100.00;94590.66;1030848;28;19983;-75
2022/02/17 01:14:45;;;;;;;;;;;;;;;9.66;100.00;94592.72;1030898;28;19924;-75
2022/02/17 01:15:15;;;;;;;;;;;;;;;9.68;100.00;94585.34;1038788;28;20432;-75
2022/02/17 01:15:45;;;;;;;;;;;;;;;9.66;100.00;94590.09;1039008;28;19906;-75
2022/02/17 01:16:16;;;;;;;;;;;;;;;9.63;100.00;94588.81;1039082;28;20111;-74
2022/02/17 01:16:46;;;;;;;;;;;;;;;9.61;100.00;94580.44;1038876;28;20004;-74
2022/02/17 01:17:16;;;;;;;;;;;;;;;9.61;100.00;94603.25;1038946;28;19914;-74
2022/02/17 01:17:47;;;;;;;;;;;;;;;9.65;100.00;94599.78;1039063;28;19936;-75
2022/02/17 01:18:17;;;;;;;;;;;;;;;9.66;100.00;94582.25;1038947;28;20438;-75
2022/02/17 01:18:48;;;;;;;;;;;;;;;9.64;100.00;94577.25;1038385;28;20054;-75
2022/02/17 01:19:18;;;;;;;;;;;;;;;9.67;100.00;94560.22;1035068;28;20363;-75
2022/02/17 01:19:48;;;;;;;;;;;;;;;9.68;100.00;94574.84;1034969;28;19913;-74
2022/02/17 01:20:19;;;;;;;;;;;;;;;9.64;100.00;94574.66;1034882;28;19909;-74
2022/02/17 01:20:50;;;;;;;;;;;;;;;9.66;100.00;94566.53;1039093;28;20025;-75
2022/02/17 01:21:21;;;;;;;;;;;;;;;9.65;100.00;94578.81;1043022;28;20382;-74
2022/02/17 01:21:51;;;;;;;;;;;;;;;9.68;100.00;94590.56;1043018;28;19908;-74
2022/02/17 01:22:22;;;;;;;;;;;;;;;9.75;100.00;94579.72;1043247;28;19916;-74
2022/02/17 01:22:52;;;;;;;;;;;;;;;9.71;100.00;94578.75;1039008;28;19920;-74
2022/02/17 01:23:22;;;;;;;;;;;;;;;9.72;100.00;94569.81;1038932;28;19917;-75
2022/02/17 01:23:52;;;;;;;;;;;;;;;9.72;100.00;94588.16;1038738;28;19917;-74
2022/02/17 01:24:23;;;;;;;;;;;;;;;9.67;100.00;94584.56;1038970;28;19959;-74
2022/02/17 01:24:53;;;;;;;;;;;;;;;9.67;100.00;94575.94;1030837;28;19905;-75
2022/02/17 01:25:24;;;;;;;;;;;;;;;9.68;100.00;94585.34;1028823;28;19972;-74
2022/02/17 01:25:54;;;;;;;;;;;;;;;9.71;100.00;94570.91;1030586;28;19937;-74
2022/02/17 01:26:25;;;;;;;;;;;;;;;9.66;100.00;94577.78;1030957;28;19977;-75
2022/02/17 01:26:55;;;;;;;;;;;;;;;9.64;100.00;94577.25;1039069;28;20382;-75
2022/02/17 01:27:26;;;;;;;;;;;;;;;9.65;100.00;94562.31;1038931;28;19912;-75
2022/02/17 01:27:59;;;;;;;;;;;;;;;9.59;100.00;94571.31;1039003;28;19979;-74
2022/02/17 01:28:30;;;;;;;;;;;;;;;9.62;100.00;94570.75;1034991;28;19948;-75
2022/02/17 01:29:00;;;;;;;;;;;;;;;9.58;100.00;94548.81;1035118;28;19943;-74
2022/02/17 01:29:31;;;;;;;;;;;;;;;9.62;100.00;94586.47;1038884;28;19917;-74
2022/02/17 01:30:01;;;;;;;;;;;;;;;9.60;100.00;94538.84;1038760;28;19913;-75
2022/02/17 01:30:31;;;;;;;;;;;;;;;9.65;100.00;94539.53;1038863;28;19919;-75
2022/02/17 01:31:02;;;;;;;;;;;;;;;9.68;100.00;94565.16;1034743;28;19914;-74
2022/02/17 01:31:33;;;;;;;;;;;;;;;9.71;100.00;94548.09;1030900;28;20364;-75
2022/02/17 01:32:03;;;;;;;;;;;;;;;9.68;100.00;94559.91;1030571;28;20025;-74
2022/02/17 01:32:33;;;;;;;;;;;;;;;9.68;100.00;94556.53;1031057;28;19913;-75
2022/02/17 01:33:04;;;;;;;;;;;;;;;9.67;100.00;94568.84;1034932;28;19913;-75
2022/02/17 01:33:36;;;;;;;;;;;;;;;9.72;100.00;94588.16;1034917;28;19913;-75
2022/02/17 01:34:08;;;;;;;;;;;;;;;9.72;100.00;94564.59;1034519;28;19913;-75
2022/02/17 01:34:39;;;;;;;;;;;;;;;9.67;100.00;94568.84;1034915;28;19964;-74
2022/02/17 01:35:10;;;;;;;;;;;;;;;9.66;100.00;94569.91;1035649;28;19917;-75
2022/02/17 01:35:40;;;;;;;;;;;;;;;9.62;100.00;94555.84;1044426;28;19908;-74
2022/02/17 01:36:10;;;;;;;;;;;;;;;9.58;100.00;94567.94;1043121;28;19916;-75
2022/02/17 01:36:41;;;;;;;;;;;;;;;9.56;100.00;94572.69;1043362;28;19995;-75
2022/02/17 01:37:11;;;;;;;;;;;;;;;9.60;100.00;94547.47;1047168;28;19971;-75
2022/02/17 01:37:42;;;;;;;;;;;;;;;9.63;100.00;94549.53;1043044;28;19928;-74
2022/02/17 01:38:13;;;;;;;;;;;;;;;9.60;100.00;94515.28;1043004;28;19920;-74
2022/02/17 01:38:46;;;;;;;;;;;;;;;9.62;100.00;94576.00;1042882;28;19909;-75
2022/02/17 01:39:16;;;;;;;;;;;;;;;9.63;100.00;94522.56;1038997;28;19910;-74
2022/02/17 01:39:47;;;;;;;;;;;;;;;9.62;100.00;94519.16;1033905;28;20276;-75
2022/02/17 01:40:18;;;;;;;;;;;;;;;9.66;100.00;94527.25;1035148;28;20423;-75
2022/02/17 01:40:50;;;;;;;;;;;;;;;9.67;100.00;94529.56;1039350;28;19909;-75
2022/02/17 01:41:21;;;;;;;;;;;;;;;9.67;100.00;94526.16;1030764;28;19913;-74
2022/02/17 01:41:51;;;;;;;;;;;;;;;9.65;100.00;94525.66;1030797;28;19910;-75
2022/02/17 01:42:22;;;;;;;;;;;;;;;9.67;100.00;94524.31;1030406;28;20414;-74
2022/02/17 01:42:52;;;;;;;;;;;;;;;9.61;100.00;94540.41;1030978;28;19914;-75
2022/02/17 01:43:22;;;;;;;;;;;;;;;9.62;100.00;94529.66;1031001;28;19917;-74
2022/02/17 01:43:53;;;;;;;;;;;;;;;9.64;100.00;94526.72;1030866;28;19917;-75
2022/02/17 01:44:23;;;;;;;;;;;;;;;9.64;100.00;94519.66;1034770;28;19910;-75
2022/02/17 01:44:53;;;;;;;;;;;;;;;9.62;100.00;94540.13;1035004;28;19914;-75
2022/02/17 01:45:24;;;;;;;;;;;;;;;9.61;100.00;94529.91;1030912;28;19917;-75
2022/02/17 01:45:54;;;;;;;;;;;;;;;9.60;100.00;94531.75;1038508;28;19917;-74
2022/02/17 01:46:35;;;;;;;;;;;;;;;9.65;100.00;94528.28;1034809;28;19909;-75
2022/02/17 01:47:09;;;;;;;;;;;;;;;9.62;100.00;94531.47;1036313;28;19916;-75
2022/02/17 01:47:44;;;;;;;;;;;;;;;9.63;100.00;94527.81;1038708;28;19959;-73
2022/02/17 01:48:14;;;;;;;;;;;;;;;9.59;100.00;94540.69;1030788;28;19961;-75
2022/02/17 01:48:44;;;;;;;;;;;;;;;9.61;100.00;94558.72;1031786;28;19918;-75
2022/02/17 01:49:15;;;;;;;;;;;;;;;9.63;100.00;94517.31;1035039;28;19910;-74
2022/02/17 01:49:47;;;;;;;;;;;;;;;9.68;100.00;94528.47;1034451;28;20029;-74
2022/02/17 01:50:17;;;;;;;;;;;;;;;9.70;100.00;94535.28;1034917;28;19964;-75
2022/02/17 01:50:48;;;;;;;;;;;;;;;9.68;100.00;94538.19;1034886;28;19905;-75
2022/02/17 01:51:18;;;;;;;;;;;;;;;9.64;100.00;94548.47;1039289;28;19956;-75
2022/02/17 01:51:48;;;;;;;;;;;;;;;9.66;100.00;94488.72;1039047;28;20383;-74
2022/02/17 01:52:19;;;;;;;;;;;;;;;9.77;100.00;94512.13;1038959;28;19913;-74
2022/02/17 02:08:24;;;;;;;;;;;;;;;9.86;100.00;94513.03;1049321;28;19935;-72
2022/02/17 02:08:54;;;;;;;;;;;;;;;9.85;100.00;94514.06;1047776;28;19951;-72
2022/02/17 02:09:25;;;;;;;;;;;;;;;9.81;100.00;94518.34;1039156;28;19909;-71
2022/02/17 02:09:56;;;;;;;;;;;;;;;9.83;100.00;94527.47;1038516;28;19917;-72
2022/02/17 02:10:26;;;;;;;;;;;;;;;9.82;100.00;94520.66;1035467;28;19921;-72
2022/02/17 02:10:57;;;;;;;;;;;;;;;9.81;100.00;94524.34;1031823;28;19918;-72
2022/02/17 02:11:27;;;;;;;;;;;;;;;9.86;100.00;94492.06;1031231;28;20367;-73
2022/02/17 02:11:57;;;;;;;;;;;;;;;9.87;100.00;94525.81;1031353;28;19924;-72
2022/02/17 02:12:28;;;;;;;;;;;;;;;9.88;100.00;94510.88;1023681;28;19914;-73
2022/02/17 02:13:00;;;;;;;;;;;;;;;9.84;100.00;94520.38;1027462;28;20694;-72
2022/02/17 02:13:30;;;;;;;;;;;;;;;9.87;100.00;94527.69;1038395;28;19918;-72
2022/02/17 02:14:00;;;;;;;;;;;;;;;9.89;100.00;94513.22;1040410;28;20360;-72
2022/02/17 02:14:31;;;;;;;;;;;;;;;9.89;100.00;94528.94;1040257;28;19925;-72
2022/02/17 02:15:01;;;;;;;;;;;;;;;9.84;100.00;94525.63;1040420;28;19956;-72
2022/02/17 02:15:44;;;;;;;;;;;;;;;9.86;100.00;94534.75;1040168;28;20051;-73
2022/02/17 02:16:14;;;;;;;;;;;;;;;9.85;100.00;94535.81;1036475;28;19972;-72
2022/02/17 02:16:45;;;;;;;;;;;;;;;9.93;100.00;94505.56;1027826;28;19954;-72
2022/02/17 02:17:15;;;;;;;;;;;;;;;9.90;100.00;94532.34;1027398;28;19963;-71
2022/02/17 02:17:45;;;;;;;;;;;;;;;9.89;100.00;94546.50;1028121;28;19960;-70
2022/02/17 02:18:16;;;;;;;;;;;;;;;9.86;100.00;94536.59;1032113;28;19921;-72
2022/02/17 02:18:46;;;;;;;;;;;;;;;9.85;100.00;94543.66;1031822;28;20008;-72
2022/02/17 02:19:16;;;;;;;;;;;;;;;9.84;100.00;94531.66;1036412;28;20284;-72
2022/02/17 02:19:47;;;;;;;;;;;;;;;9.83;100.00;94539.81;1031358;28;20477;-72
2022/02/17 02:20:19;;;;;;;;;;;;;;;9.85;100.00;94535.03;1032473;28;20013;-72
2022/02/17 02:20:50;;;;;;;;;;;;;;;9.86;100.00;94536.59;1036572;28;19910;-73
2022/02/17 02:21:21;;;;;;;;;;;;;;;9.84;100.00;94523.78;1032009;28;20000;-72
2022/02/17 02:21:52;;;;;;;;;;;;;;;9.84;100.00;94518.53;1029596;28;20375;-71
2022/02/17 02:22:26;;;;;;;;;;;;;;;9.87;100.00;94530.28;1031985;28;20008;-73
2022/02/17 02:22:56;;;;;;;;;;;;;;;9.90;100.00;94479.94;1028691;28;20376;-71
2022/02/17 02:23:26;;;;;;;;;;;;;;;9.89;100.00;94521.09;1032739;28;19921;-72
2022/02/17 02:23:57;;;;;;;;;;;;;;;9.91;100.00;94545.16;1036219;28;19921;-72
2022/02/17 02:24:30;;;;;;;;;;;;;;;9.94;100.00;94530.69;1036941;28;19917;-72
2022/02/17 02:25:00;;;;;;;;;;;;;;;9.96;100.00;94528.59;1036095;28;20394;-72
2022/02/17 02:25:31;;;;;;;;;;;;;;;10.01;100.00;94510.13;1032301;28;19922;-71
2022/02/17 02:26:01;;;;;;;;;;;;;;;10.04;100.00;94501.69;1032631;28;20533;-72
2022/02/17 02:26:31;;;;;;;;;;;;;;;10.02;100.00;94501.19;1032218;28;19922;-71
2022/02/17 02:27:09;;;;;;;;;;;;;;;9.98;100.00;94504.69;1035940;28;19921;-72
2022/02/17 02:27:39;;;;;;;;;;;;;;;9.97;100.00;94519.66;1034028;28;19917;-72
2022/02/17 02:28:10;;;;;;;;;;;;;;;9.95;100.00;94490.31;1037055;28;20406;-73
2022/02/17 02:28:40;;;;;;;;;;;;;;;9.95;100.00;94502.66;1032001;28;19914;-72
2022/02/17 02:29:10;;;;;;;;;;;;;;;9.99;100.00;94501.00;1028167;28;19918;-73
2022/02/17 02:29:41;;;;;;;;;;;;;;;10.01;100.00;94478.69;1027181;28;20701;-71
2022/02/17 02:30:11;;;;;;;;;;;;;;;10.00;100.00;94473.75;1028274;28;19918;-73
2022/02/17 02:30:42;;;;;;;;;;;;;;;10.09;100.00;94474.59;1028355;28;19914;-72
2022/02/17 02:31:12;;;;;;;;;;;;;;;10.09;100.00;94477.22;1028133;28;20407;-73
2022/02/17 02:31:42;;;;;;;;;;;;;;;10.05;100.00;94477.03;1028353;28;19918;-72
2022/02/17 02:32:13;;;;;;;;;;;;;;;10.11;100.00;94462.78;1033960;28;19914;-71
2022/02/17 02:32:43;;;;;;;;;;;;;;;10.10;100.00;94492.69;1032124;28;20307;-73
2022/02/17 02:33:14;;;;;;;;;;;;;;;10.12;100.00;94477.44;1036147;28;19961;-73
2022/02/17 02:33:45;;;;;;;;;;;;;;;10.12;100.00;94463.56;1027894;28;20366;-73
2022/02/17 02:34:15;;;;;;;;;;;;;;;10.12;100.00;94481.91;1030778;28;19925;-72
2022/02/17 02:34:45;;;;;;;;;;;;;;;10.17;100.00;94479.19;1039602;28;19917;-70
2022/02/17 02:35:16;;;;;;;;;;;;;;;10.13;100.00;94499.97;1040719;28;19940;-73
2022/02/17 02:35:46;;;;;;;;;;;;;;;10.13;100.00;94476.38;1043840;28;19917;-72
2022/02/17 02:36:16;;;;;;;;;;;;;;;10.08;100.00;94462.59;1040447;28;19957;-72
2022/02/17 02:36:47;;;;;;;;;;;;;;;10.04;100.00;94478.13;1040560;28;19917;-72
2022/02/17 02:37:17;;;;;;;;;;;;;;;9.99;100.00;94470.31;1040327;28;19940;-73
2022/02/17 02:37:47;;;;;;;;;;;;;;;10.03;100.00;94463.47;1036274;28;20321;-72
2022/02/17 02:38:19;;;;;;;;;;;;;;;10.00;100.00;94458.03;1036783;28;20449;-73
2022/02/17 02:38:53;;;;;;;;;;;;;;;9.97;100.00;94451.50;1036936;28;19972;-73
2022/02/17 02:39:23;;;;;;;;;;;;;;;9.96;100.00;94478.00;1044997;28;19971;-73
2022/02/17 02:39:53;;;;;;;;;;;;;;;9.95;100.00;94456.25;1048053;28;19909;-72
2022/02/17 02:40:24;;;;;;;;;;;;;;;9.96;100.00;94481.41;1040065;28;20401;-73
2022/02/17 02:40:55;;;;;;;;;;;;;;;9.98;100.00;94479.25;1040118;28;20508;-71
2022/02/17 02:41:27;;;;;;;;;;;;;;;9.99;100.00;94470.31;1035952;28;19913;-72
2022/02/17 02:41:57;;;;;;;;;;;;;;;9.96;100.00;94457.84;1027893;28;19925;-72
2022/02/17 02:42:28;;;;;;;;;;;;;;;9.91;100.00;94457.91;1027977;28;19925;-73
2022/02/17 02:42:58;;;;;;;;;;;;;;;9.95;100.00;94447.63;1028085;28;20208;-72
2022/02/17 02:43:28;;;;;;;;;;;;;;;9.90;100.00;94454.50;1035985;28;20434;-72
2022/02/17 02:43:59;;;;;;;;;;;;;;;10.06;100.00;94465.50;1036175;28;19965;-72
2022/02/17 02:44:29;;;;;;;;;;;;;;;10.08;100.00;94455.50;1028019;28;19906;-72
2022/02/17 02:45:00;;;;;;;;;;;;;;;10.01;100.00;94455.09;1024097;28;19957;-72
2022/02/17 02:45:31;;;;;;;;;;;;;;;10.02;100.00;94467.13;1027964;28;20011;-73
2022/02/17 02:46:01;;;;;;;;;;;;;;;10.01;100.00;94442.00;1027982;28;19915;-72
2022/02/17 02:46:32;;;;;;;;;;;;;;;9.98;100.00;94447.81;1032541;28;19987;-73
2022/02/17 02:47:02;;;;;;;;;;;;;;;10.02;100.00;94459.28;1040056;28;19947;-73
2022/02/17 02:47:33;;;;;;;;;;;;;;;10.00;100.00;94447.53;1040052;28;19909;-72
2022/02/17 02:48:04;;;;;;;;;;;;;;;9.97;100.00;94409.59;1036138;28;19965;-72
2022/02/17 02:48:34;;;;;;;;;;;;;;;10.03;100.00;94391.94;1023996;29;20231;-72
2022/02/17 02:49:05;;;;;;;;;;;;;;;10.10;100.00;94419.31;1024113;28;19914;-72
2022/02/17 02:49:36;;;;;;;;;;;;;;;10.09;100.00;94438.72;1023315;28;20013;-73
2022/02/17 02:50:06;;;;;;;;;;;;;;;10.10;100.00;94447.34;1023912;28;19914;-72
2022/02/17 02:50:36;;;;;;;;;;;;;;;10.13;100.00;94433.66;1028511;28;19914;-71
2022/02/17 02:51:07;;;;;;;;;;;;;;;10.07;100.00;94434.81;1031876;28;19921;-72
2022/02/17 02:51:37;;;;;;;;;;;;;;;10.07;100.00;94446.09;1031894;28;19921;-72
2022/02/17 02:52:07;;;;;;;;;;;;;;;10.06;100.00;94451.59;1040471;28;19987;-72
2022/02/17 02:52:38;;;;;;;;;;;;;;;10.07;100.00;94438.22;1044236;28;19967;-72
2022/02/17 02:53:08;;;;;;;;;;;;;;;10.10;100.00;94465.69;1039929;28;19909;-72
2022/02/17 02:53:38;;;;;;;;;;;;;;;10.10;100.00;94453.38;1044311;28;20409;-72
2022/02/17 02:54:09;;;;;;;;;;;;;;;10.11;100.00;94504.72;1039993;28;20286;-72
2022/02/17 02:54:39;;;;;;;;;;;;;;;10.27;100.00;94423.22;1036167;28;19956;-72
2022/02/17 02:55:09;;;;;;;;;;;;;;;10.28;100.00;94466.69;1035977;28;19913;-73
2022/02/17 02:55:39;;;;;;;;;;;;;;;10.27;100.00;94444.94;1035947;28;19913;-73